Time;durP1;ratioP1;P1;durP2;ratioP2;P2;SDS_P1;SDS_P2;PMS_P1;PMS_P2;Temp;Humidity;BMP_temperature;BMP_pressure;BME280_temperature;BME280_humidity;BME280_pressure;Samples;Min_cycle;Max_cycle;Signal;HPM_P1;HPM_P2
2022/11/16 00:02:41;;;;;;;11.43;8.75;;;;;;;;;;6268643;28;20052;-63
2022/11/16 00:05:44;;;;;;;11.98;8.32;;;;;;;;;;6263305;28;20229;-63
2022/11/16 00:09:20;;;;;;;10.60;8.25;;;;;;;;;;6266794;28;20057;-63
2022/11/16 00:12:11;;;;;;;11.20;8.43;;;;;;;;;;6267631;28;20168;-63
2022/11/16 00:15:13;;;;;;;10.75;8.52;;;;;;;;;;6264318;28;20080;-62
2022/11/16 00:18:14;;;;;;;10.45;8.13;;;;;;;;;;6260912;28;20049;-63
2022/11/16 00:21:17;;;;;;;10.43;8.07;;;;;;;;;;6266086;28;20132;-63
2022/11/16 00:24:20;;;;;;;12.25;9.20;;;;;;;;;;6261215;28;20053;-63
2022/11/16 00:27:22;;;;;;;11.75;8.60;;;;;;;;;;6271326;28;20702;-63
2022/11/16 00:30:23;;;;;;;12.07;8.70;;;;;;;;;;6260190;28;20052;-63
2022/11/16 00:33:25;;;;;;;10.75;8.65;;;;;;;;;;6257592;28;20045;-63
2022/11/16 00:36:28;;;;;;;11.80;8.50;;;;;;;;;;6265211;28;20237;-63
2022/11/16 00:39:29;;;;;;;12.70;9.38;;;;;;;;;;6256740;28;20057;-63
2022/11/16 00:42:31;;;;;;;13.90;9.65;;;;;;;;;;6266834;28;20332;-62
2022/11/16 00:45:33;;;;;;;12.82;9.25;;;;;;;;;;6264893;28;20177;-63
2022/11/16 00:48:34;;;;;;;11.40;8.45;;;;;;;;;;6266725;28;20151;-63
2022/11/16 00:51:38;;;;;;;12.63;8.73;;;;;;;;;;6265321;28;20061;-63
2022/11/16 00:54:39;;;;;;;11.57;8.50;;;;;;;;;;6267291;28;20041;-63
2022/11/16 00:57:41;;;;;;;12.82;9.60;;;;;;;;;;6266127;28;20052;-63
2022/11/16 01:00:43;;;;;;;11.73;9.00;;;;;;;;;;6265564;28;20103;-63
2022/11/16 01:03:46;;;;;;;10.93;7.75;;;;;;;;;;6265485;28;20065;-63
2022/11/16 01:06:49;;;;;;;12.02;8.52;;;;;;;;;;6267728;28;20053;-63
2022/11/16 01:09:51;;;;;;;12.32;9.05;;;;;;;;;;6265762;28;20045;-64
2022/11/16 01:12:53;;;;;;;12.57;9.23;;;;;;;;;;6269453;28;20049;-63
2022/11/16 01:15:54;;;;;;;12.43;9.65;;;;;;;;;;6266702;28;20067;-63
2022/11/16 01:18:56;;;;;;;13.82;8.85;;;;;;;;;;6263821;28;20053;-63
2022/11/16 01:21:59;;;;;;;12.02;8.85;;;;;;;;;;6268284;28;20336;-62
2022/11/16 01:25:01;;;;;;;12.50;9.43;;;;;;;;;;6268871;28;20065;-62
2022/11/16 01:28:02;;;;;;;14.00;9.35;;;;;;;;;;6266763;28;20102;-63
2022/11/16 01:31:04;;;;;;;13.65;9.93;;;;;;;;;;6256342;28;20100;-63
2022/11/16 01:34:06;;;;;;;13.88;9.80;;;;;;;;;;6260207;28;20280;-63
2022/11/16 01:37:09;;;;;;;12.82;9.60;;;;;;;;;;6265393;28;20055;-63
2022/11/16 01:40:11;;;;;;;13.32;9.65;;;;;;;;;;6262737;28;20049;-63
2022/11/16 01:43:16;;;;;;;13.35;9.63;;;;;;;;;;6263517;28;20049;-63
2022/11/16 01:46:18;;;;;;;12.55;9.35;;;;;;;;;;6263385;28;20044;-63
2022/11/16 01:49:21;;;;;;;14.38;9.80;;;;;;;;;;6264279;28;20091;-63
2022/11/16 01:52:28;;;;;;;12.18;9.05;;;;;;;;;;6267852;28;20048;-62
2022/11/16 01:55:32;;;;;;;13.95;9.85;;;;;;;;;;6264692;28;20044;-63
2022/11/16 01:58:34;;;;;;;12.70;9.48;;;;;;;;;;6262738;28;20336;-63
2022/11/16 02:01:35;;;;;;;12.60;9.43;;;;;;;;;;6261560;28;20049;-63
2022/11/16 02:04:37;;;;;;;12.23;9.63;;;;;;;;;;6264618;28;20092;-63
2022/11/16 02:11:27;;;;;;;14.15;10.52;;;;;;;;;;6263441;28;20363;-62
2022/11/16 02:14:38;;;;;;;13.90;10.77;;;;;;;;;;6265645;28;20064;-63
2022/11/16 02:17:46;;;;;;;13.18;9.23;;;;;;;;;;6272711;28;21188;-63
2022/11/16 02:21:09;;;;;;;12.57;9.48;;;;;;;;;;6268581;28;20087;-62
2022/11/16 02:24:25;;;;;;;13.82;10.55;;;;;;;;;;6266081;28;20721;-63
2022/11/16 02:27:42;;;;;;;11.85;9.48;;;;;;;;;;6267931;28;20053;-63
2022/11/16 02:30:47;;;;;;;12.77;9.05;;;;;;;;;;6267723;28;20399;-63
2022/11/16 02:37:54;;;;;;;11.18;8.45;;;;;;;;;;6265739;28;20064;-63
2022/11/16 02:41:01;;;;;;;12.73;9.27;;;;;;;;;;6254056;28;20111;-63
2022/11/16 02:44:07;;;;;;;14.05;9.88;;;;;;;;;;6259568;28;20049;-63
2022/11/16 02:47:13;;;;;;;12.18;9.45;;;;;;;;;;6257179;28;20053;-62
2022/11/16 02:50:18;;;;;;;13.23;9.80;;;;;;;;;;6264063;28;20360;-63
2022/11/16 02:53:21;;;;;;;11.75;9.10;;;;;;;;;;6257373;28;20321;-63
2022/11/16 02:56:23;;;;;;;13.32;9.40;;;;;;;;;;6258673;28;20104;-63
2022/11/16 02:59:29;;;;;;;13.43;9.63;;;;;;;;;;6264782;28;20061;-62
2022/11/16 03:02:36;;;;;;;13.13;9.50;;;;;;;;;;6266653;28;20103;-63
2022/11/16 03:05:40;;;;;;;13.30;9.82;;;;;;;;;;6263892;28;20364;-63
2022/11/16 03:08:44;;;;;;;13.02;9.73;;;;;;;;;;6262891;28;20053;-63
2022/11/16 03:11:59;;;;;;;12.15;9.10;;;;;;;;;;6267664;28;20045;-63
2022/11/16 03:15:03;;;;;;;13.60;9.68;;;;;;;;;;6266762;28;20317;-63
2022/11/16 03:18:07;;;;;;;12.05;9.32;;;;;;;;;;6261341;28;20635;-63
2022/11/16 03:21:13;;;;;;;12.45;8.90;;;;;;;;;;6266446;28;20048;-63
2022/11/16 03:24:15;;;;;;;13.23;9.55;;;;;;;;;;6268566;28;20045;-62
2022/11/16 03:27:24;;;;;;;12.23;9.13;;;;;;;;;;6266638;28;20404;-63
2022/11/16 03:30:29;;;;;;;12.50;9.63;;;;;;;;;;6268134;28;20343;-62
2022/11/16 03:33:34;;;;;;;12.65;9.55;;;;;;;;;;6271646;28;20186;-63
2022/11/16 03:36:39;;;;;;;11.55;8.60;;;;;;;;;;6271825;28;20037;-63
2022/11/16 03:39:41;;;;;;;12.45;8.93;;;;;;;;;;6265058;28;20115;-62
2022/11/16 03:42:44;;;;;;;11.70;8.80;;;;;;;;;;6270760;28;20360;-63
2022/11/16 03:45:45;;;;;;;12.38;9.18;;;;;;;;;;6271787;28;20110;-63
2022/11/16 03:48:48;;;;;;;11.23;8.55;;;;;;;;;;6266417;28;20041;-63
2022/11/16 03:51:50;;;;;;;12.23;8.70;;;;;;;;;;6260837;28;20150;-62
2022/11/16 03:54:52;;;;;;;11.02;8.50;;;;;;;;;;6270627;28;20061;-63
2022/11/16 03:57:54;;;;;;;10.60;8.00;;;;;;;;;;6272092;28;20045;-63
2022/11/16 04:00:55;;;;;;;10.77;8.13;;;;;;;;;;6267762;28;20279;-63
2022/11/16 04:03:58;;;;;;;11.45;8.35;;;;;;;;;;6269979;28;20081;-63
2022/11/16 04:30:19;;;;;;;10.68;8.43;;;;;;;;;;6263609;28;20087;-63
2022/11/16 04:39:59;;;;;;;12.48;8.73;;;;;;;;;;6267031;28;20053;-63
2022/11/16 04:43:03;;;;;;;11.82;8.80;;;;;;;;;;6267650;28;20066;-63
2022/11/16 04:49:23;;;;;;;10.15;7.80;;;;;;;;;;6240984;28;20559;-63
2022/11/16 04:52:26;;;;;;;11.25;8.48;;;;;;;;;;6254517;28;20053;-63
2022/11/16 04:55:28;;;;;;;11.98;9.00;;;;;;;;;;6266277;28;20099;-63
2022/11/16 04:58:29;;;;;;;12.45;9.27;;;;;;;;;;6268724;28;20094;-63
2022/11/16 05:04:50;;;;;;;14.63;10.80;;;;;;;;;;6267566;28;20348;-62
2022/11/16 05:07:53;;;;;;;15.13;10.93;;;;;;;;;;6267798;28;20061;-63
2022/11/16 05:10:55;;;;;;;15.40;10.90;;;;;;;;;;6265423;28;20275;-63
2022/11/16 05:13:57;;;;;;;15.35;11.55;;;;;;;;;;6259009;28;20058;-63
2022/11/16 05:16:58;;;;;;;16.15;11.18;;;;;;;;;;6264712;28;20079;-63
2022/11/16 05:26:39;;;;;;;15.68;11.18;;;;;;;;;;6268810;28;20053;-62
2022/11/16 05:29:42;;;;;;;18.05;11.57;;;;;;;;;;6267987;28;20044;-63
2022/11/16 05:32:44;;;;;;;16.20;11.57;;;;;;;;;;6265647;28;20049;-62
2022/11/16 05:35:46;;;;;;;18.17;12.18;;;;;;;;;;6267194;28;20064;-63
2022/11/16 05:38:48;;;;;;;18.25;12.07;;;;;;;;;;6264816;28;20061;-63
2022/11/16 05:41:50;;;;;;;18.33;12.32;;;;;;;;;;6265865;28;20100;-63
2022/11/16 05:44:52;;;;;;;18.45;11.95;;;;;;;;;;6267192;28;20252;-63
2022/11/16 05:47:54;;;;;;;20.25;13.02;;;;;;;;;;6263138;28;20064;-63
2022/11/16 05:50:58;;;;;;;19.17;12.38;;;;;;;;;;6265034;28;20065;-65
2022/11/16 05:54:01;;;;;;;18.00;11.80;;;;;;;;;;6258833;28;20118;-64
2022/11/16 05:57:03;;;;;;;18.98;12.38;;;;;;;;;;6267008;28;20155;-63
2022/11/16 06:00:05;;;;;;;19.13;12.75;;;;;;;;;;6264406;28;20049;-64
2022/11/16 06:03:07;;;;;;;16.92;12.32;;;;;;;;;;6262290;28;20103;-64
2022/11/16 06:06:09;;;;;;;19.25;12.82;;;;;;;;;;6259998;28;20107;-63
2022/11/16 06:09:12;;;;;;;20.08;13.38;;;;;;;;;;6270985;28;20102;-63
2022/11/16 06:12:14;;;;;;;19.13;13.18;;;;;;;;;;6267503;28;20059;-63
2022/11/16 06:15:16;;;;;;;20.85;13.98;;;;;;;;;;6267048;28;20053;-63
2022/11/16 06:18:18;;;;;;;20.88;13.23;;;;;;;;;;6268320;28;20549;-63
2022/11/16 06:21:19;;;;;;;20.05;13.18;;;;;;;;;;6272317;28;20049;-63
2022/11/16 06:24:23;;;;;;;18.98;13.05;;;;;;;;;;6271211;28;20136;-62
2022/11/16 06:27:24;;;;;;;21.92;13.30;;;;;;;;;;6268933;28;20260;-61
2022/11/16 06:30:26;;;;;;;23.40;14.25;;;;;;;;;;6268498;28;20159;-63
2022/11/16 06:33:28;;;;;;;20.45;13.55;;;;;;;;;;6265461;28;20099;-63
2022/11/16 06:36:29;;;;;;;22.13;13.95;;;;;;;;;;6265964;28;20045;-62
2022/11/16 06:39:32;;;;;;;22.42;13.85;;;;;;;;;;6259051;28;20392;-63
2022/11/16 06:42:34;;;;;;;22.13;13.75;;;;;;;;;;6259397;28;20193;-63
2022/11/16 06:45:36;;;;;;;20.95;12.90;;;;;;;;;;6255811;28;20053;-65
2022/11/16 06:48:37;;;;;;;23.70;14.48;;;;;;;;;;6265507;28;20041;-65
2022/11/16 06:51:39;;;;;;;22.85;13.88;;;;;;;;;;6265568;28;20053;-65
2022/11/16 06:54:42;;;;;;;23.85;15.02;;;;;;;;;;6263497;28;20048;-65
2022/11/16 06:57:45;;;;;;;23.45;14.30;;;;;;;;;;6274178;28;20503;-64
2022/11/16 07:00:46;;;;;;;22.23;13.32;;;;;;;;;;6273685;28;20041;-65
2022/11/16 07:03:48;;;;;;;23.75;14.13;;;;;;;;;;6264935;28;20275;-64
2022/11/16 07:06:49;;;;;;;21.23;13.50;;;;;;;;;;6271149;28;20056;-65
2022/11/16 07:09:52;;;;;;;21.85;13.43;;;;;;;;;;6269511;28;20083;-65
2022/11/16 07:12:54;;;;;;;24.52;14.98;;;;;;;;;;6257973;28;20061;-64
2022/11/16 07:16:01;;;;;;;25.02;14.40;;;;;;;;;;6247312;28;20072;-63
2022/11/16 07:19:02;;;;;;;24.75;14.05;;;;;;;;;;6244303;28;20056;-65
2022/11/16 07:22:04;;;;;;;24.08;14.57;;;;;;;;;;6242773;28;20053;-64
2022/11/16 07:25:08;;;;;;;23.70;14.38;;;;;;;;;;6244523;28;20056;-64
2022/11/16 07:28:10;;;;;;;25.52;14.07;;;;;;;;;;6243681;28;20063;-65
2022/11/16 07:31:13;;;;;;;26.17;14.00;;;;;;;;;;6242720;28;20045;-65
2022/11/16 07:34:15;;;;;;;26.95;16.08;;;;;;;;;;6242863;28;20045;-64
2022/11/16 07:37:16;;;;;;;26.23;15.43;;;;;;;;;;6243175;28;20140;-65
2022/11/16 07:40:20;;;;;;;28.02;16.30;;;;;;;;;;6246725;28;20061;-65
2022/11/16 07:43:22;;;;;;;29.10;16.17;;;;;;;;;;6245264;28;20057;-64
2022/11/16 07:46:23;;;;;;;30.05;16.23;;;;;;;;;;6243247;28;20073;-64
2022/11/16 07:49:25;;;;;;;26.80;15.93;;;;;;;;;;6244833;28;20084;-63
2022/11/16 07:52:26;;;;;;;28.02;16.90;;;;;;;;;;6244567;28;20049;-62
2022/11/16 07:55:31;;;;;;;27.95;16.40;;;;;;;;;;6243036;28;20143;-63
2022/11/16 07:58:33;;;;;;;26.00;15.50;;;;;;;;;;6245505;28;20289;-65
2022/11/16 08:01:35;;;;;;;25.35;16.17;;;;;;;;;;6245299;28;20073;-65
2022/11/16 08:04:37;;;;;;;24.70;16.08;;;;;;;;;;6243106;28;20104;-63
2022/11/16 08:07:39;;;;;;;25.00;15.23;;;;;;;;;;6242887;28;20195;-62
2022/11/16 08:10:42;;;;;;;25.13;15.98;;;;;;;;;;6246870;28;20248;-65
2022/11/16 08:13:44;;;;;;;24.52;14.85;;;;;;;;;;6243393;28;20202;-63
2022/11/16 08:16:46;;;;;;;27.98;17.00;;;;;;;;;;6261951;28;20324;-63
2022/11/16 08:19:47;;;;;;;30.50;18.55;;;;;;;;;;6269837;28;20060;-62
2022/11/16 08:22:49;;;;;;;28.92;18.40;;;;;;;;;;6267450;28;20351;-62
2022/11/16 08:25:52;;;;;;;27.52;16.35;;;;;;;;;;6269925;28;20291;-62
2022/11/16 08:28:55;;;;;;;31.70;17.10;;;;;;;;;;6268810;28;20387;-63
2022/11/16 08:31:56;;;;;;;27.48;16.52;;;;;;;;;;6268671;28;20063;-63
2022/11/16 08:34:58;;;;;;;28.63;16.90;;;;;;;;;;6269045;28;20214;-62
2022/11/16 08:38:00;;;;;;;27.08;16.42;;;;;;;;;;6267948;28;20058;-63
2022/11/16 08:41:03;;;;;;;29.92;17.85;;;;;;;;;;6262727;28;20080;-63
2022/11/16 08:44:05;;;;;;;28.20;16.67;;;;;;;;;;6267872;28;20056;-62
2022/11/16 08:47:06;;;;;;;27.20;15.30;;;;;;;;;;6265741;28;20061;-62
2022/11/16 08:50:09;;;;;;;26.80;15.23;;;;;;;;;;6262557;28;20057;-63
2022/11/16 08:53:10;;;;;;;24.15;15.32;;;;;;;;;;6264675;28;20068;-62
2022/11/16 08:56:14;;;;;;;25.83;14.98;;;;;;;;;;6267609;28;20376;-65
2022/11/16 08:59:16;;;;;;;;;;;;;;;;;;6268203;28;20045;-63
2022/11/16 09:02:24;;;;;;;23.38;14.50;;;;;;;;;;6259629;28;19925;-63
2022/11/16 09:05:25;;;;;;;23.33;13.73;;;;;;;;;;6266033;28;20108;-62
2022/11/16 09:08:27;;;;;;;20.42;13.68;;;;;;;;;;6266208;28;20048;-62
2022/11/16 09:11:30;;;;;;;21.10;13.82;;;;;;;;;;6264963;28;20066;-62
2022/11/16 09:14:32;;;;;;;22.08;13.60;;;;;;;;;;6266054;28;20048;-62
2022/11/16 09:17:33;;;;;;;20.48;13.07;;;;;;;;;;6263689;28;20347;-63
2022/11/16 09:20:35;;;;;;;18.40;12.02;;;;;;;;;;6267749;28;20045;-63
2022/11/16 09:23:37;;;;;;;18.48;12.70;;;;;;;;;;6267330;28;20107;-63
2022/11/16 09:26:39;;;;;;;17.60;12.73;;;;;;;;;;6263432;28;20056;-62
2022/11/16 09:29:41;;;;;;;17.50;12.10;;;;;;;;;;6265164;28;20103;-63
2022/11/16 09:32:43;;;;;;;18.60;12.55;;;;;;;;;;6264148;28;20057;-64
2022/11/16 09:35:45;;;;;;;20.98;13.32;;;;;;;;;;6262077;28;20288;-63
2022/11/16 09:38:47;;;;;;;19.58;13.55;;;;;;;;;;6264888;28;20095;-63
2022/11/16 09:42:01;;;;;;;18.35;12.70;;;;;;;;;;6266848;28;20717;-62
2022/11/16 09:45:07;;;;;;;18.33;12.88;;;;;;;;;;6264965;28;20041;-62
2022/11/16 09:48:11;;;;;;;17.52;12.30;;;;;;;;;;6264630;28;20158;-63
2022/11/16 09:51:13;;;;;;;;;;;;;;;;;;6265123;28;20049;-62
2022/11/16 09:54:18;;;;;;;17.15;11.65;;;;;;;;;;6267902;28;19917;-63
2022/11/16 09:57:26;;;;;;;16.23;11.15;;;;;;;;;;6266108;28;20098;-63
2022/11/16 10:00:29;;;;;;;19.13;12.73;;;;;;;;;;6263518;28;20053;-63
2022/11/16 10:03:32;;;;;;;16.92;11.20;;;;;;;;;;6263603;28;20049;-63
2022/11/16 10:06:46;;;;;;;17.83;11.65;;;;;;;;;;6267857;28;20044;-62
2022/11/16 10:09:48;;;;;;;17.33;12.10;;;;;;;;;;6264350;28;20060;-62
2022/11/16 10:12:57;;;;;;;22.08;13.50;;;;;;;;;;6266987;28;20045;-63
2022/11/16 10:16:05;;;;;;;17.88;12.32;;;;;;;;;;6263587;28;20049;-62
2022/11/16 10:19:12;;;;;;;18.02;11.68;;;;;;;;;;6264918;28;20106;-63
2022/11/16 10:22:26;;;;;;;17.70;13.10;;;;;;;;;;6266728;28;20249;-62
2022/11/16 10:25:29;;;;;;;;;;;;;;;;;;6265422;28;20060;-63
2022/11/16 10:28:49;;;;;;;18.52;11.80;;;;;;;;;;6263520;28;19947;-63
2022/11/16 10:32:00;;;;;;;15.43;11.15;;;;;;;;;;6265664;28;20069;-62
2022/11/16 10:35:04;;;;;;;17.63;12.10;;;;;;;;;;6270089;28;20053;-63
2022/11/16 10:38:11;;;;;;;16.85;11.05;;;;;;;;;;6270983;28;20410;-63
2022/11/16 10:41:17;;;;;;;14.65;10.57;;;;;;;;;;6270356;28;20118;-63
2022/11/16 10:44:25;;;;;;;16.92;11.63;;;;;;;;;;6267361;28;20244;-63
2022/11/16 10:47:34;;;;;;;18.67;12.65;;;;;;;;;;6272430;28;20049;-63
2022/11/16 10:50:38;;;;;;;18.38;12.57;;;;;;;;;;6272072;28;20100;-63
2022/11/16 10:53:42;;;;;;;16.98;12.48;;;;;;;;;;6269662;28;20265;-63
2022/11/16 10:56:45;;;;;;;;;;;;;;;;;;6271393;28;20141;-64
2022/11/16 10:59:52;;;;;;;18.02;12.30;;;;;;;;;;6270514;28;20158;-63
2022/11/16 11:02:53;;;;;;;19.60;12.25;;;;;;;;;;6271229;28;20064;-65
2022/11/16 11:05:55;;;;;;;18.30;12.43;;;;;;;;;;6272859;28;20272;-64
2022/11/16 11:09:14;;;;;;;20.05;12.57;;;;;;;;;;6270218;28;20056;-63
2022/11/16 11:15:39;;;;;;;19.73;12.10;;;;;;;;;;6269685;28;20069;-65
2022/11/16 11:18:41;;;;;;;16.55;11.25;;;;;;;;;;6267842;28;20210;-64
2022/11/16 11:21:43;;;;;;;17.77;11.50;;;;;;;;;;6269348;28;20053;-65
2022/11/16 11:24:47;;;;;;;15.68;11.15;;;;;;;;;;6271748;28;20049;-64
2022/11/16 11:27:50;;;;;;;14.85;10.55;;;;;;;;;;6266592;28;20053;-63
2022/11/16 11:30:59;;;;;;;16.48;10.73;;;;;;;;;;6266910;28;20054;-62
2022/11/16 11:34:07;;;;;;;15.10;10.10;;;;;;;;;;6265943;28;20046;-62
2022/11/16 11:37:14;;;;;;;15.57;10.23;;;;;;;;;;6271131;28;20061;-64
2022/11/16 11:40:19;;;;;;;14.40;10.50;;;;;;;;;;6262960;28;20340;-64
2022/11/16 11:43:22;;;;;;;13.43;9.68;;;;;;;;;;6268648;28;22013;-64
2022/11/16 11:46:29;;;;;;;15.77;9.52;;;;;;;;;;6269262;28;20096;-64
2022/11/16 11:49:32;;;;;;;14.65;9.23;;;;;;;;;;6269707;28;20060;-63
2022/11/16 11:52:39;;;;;;;12.75;9.45;;;;;;;;;;6267327;28;20052;-63
2022/11/16 11:55:41;;;;;;;13.05;8.90;;;;;;;;;;6260808;28;20042;-64
2022/11/16 11:58:43;;;;;;;13.75;9.23;;;;;;;;;;6267676;28;20061;-63
2022/11/16 12:02:03;;;;;;;11.27;8.25;;;;;;;;;;6257282;28;20076;-65
2022/11/16 12:05:33;;;;;;;11.32;8.02;;;;;;;;;;6269003;28;20045;-63
2022/11/16 12:08:54;;;;;;;9.88;7.30;;;;;;;;;;6267662;28;20049;-64
2022/11/16 12:12:05;;;;;;;9.30;7.22;;;;;;;;;;6266895;28;20063;-64
2022/11/16 12:15:23;;;;;;;9.73;6.88;;;;;;;;;;6267774;28;20244;-64
2022/11/16 12:18:41;;;;;;;9.05;6.88;;;;;;;;;;6266700;28;20057;-64
2022/11/16 12:21:53;;;;;;;9.77;6.72;;;;;;;;;;6260468;28;20091;-64
2022/11/16 12:25:07;;;;;;;11.45;7.35;;;;;;;;;;6256001;28;20057;-65
2022/11/16 12:28:17;;;;;;;10.15;7.22;;;;;;;;;;6267934;28;20056;-64
2022/11/16 12:31:33;;;;;;;10.70;6.95;;;;;;;;;;6270053;28;20313;-65
2022/11/16 12:34:51;;;;;;;8.98;6.40;;;;;;;;;;6263402;28;20283;-65
2022/11/16 12:37:59;;;;;;;8.38;6.47;;;;;;;;;;6266703;28;20053;-64
2022/11/16 12:41:11;;;;;;;9.05;6.45;;;;;;;;;;6266389;28;20044;-64
2022/11/16 12:44:19;;;;;;;9.20;6.68;;;;;;;;;;6264052;28;20064;-65
2022/11/16 12:47:23;;;;;;;9.07;6.65;;;;;;;;;;6266502;28;20132;-62
2022/11/16 12:50:37;;;;;;;10.75;6.82;;;;;;;;;;6263706;28;20048;-67
2022/11/16 12:53:58;;;;;;;9.73;7.45;;;;;;;;;;6257888;28;20275;-62
2022/11/16 12:57:05;;;;;;;9.15;6.70;;;;;;;;;;6265750;28;20099;-64
2022/11/16 13:00:08;;;;;;;11.43;7.30;;;;;;;;;;6268543;28;20045;-66
2022/11/16 13:03:14;;;;;;;10.32;7.53;;;;;;;;;;6266105;28;20125;-62
2022/11/16 13:06:19;;;;;;;10.15;7.45;;;;;;;;;;6267110;28;20148;-68
2022/11/16 13:09:23;;;;;;;11.30;7.80;;;;;;;;;;6252820;28;20063;-69
2022/11/16 13:12:26;;;;;;;10.27;7.57;;;;;;;;;;6266734;28;20056;-67
2022/11/16 13:15:34;;;;;;;11.40;7.75;;;;;;;;;;6266413;28;20072;-66
2022/11/16 13:18:39;;;;;;;9.98;7.90;;;;;;;;;;6261987;28;20103;-65
2022/11/16 13:21:47;;;;;;;10.88;8.05;;;;;;;;;;6258264;28;20252;-65
2022/11/16 13:24:52;;;;;;;11.63;8.48;;;;;;;;;;6257493;28;20042;-67
2022/11/16 13:27:56;;;;;;;10.32;8.20;;;;;;;;;;6264138;28;20061;-67
2022/11/16 13:31:02;;;;;;;11.05;8.60;;;;;;;;;;6262986;28;20108;-66
2022/11/16 13:34:07;;;;;;;11.48;8.93;;;;;;;;;;6261406;28;20332;-66
2022/11/16 13:37:48;;;;;;;11.50;8.63;;;;;;;;;;6267272;28;20356;-66
2022/11/16 13:40:50;;;;;;;10.15;7.50;;;;;;;;;;6265367;28;20049;-66
2022/11/16 13:43:51;;;;;;;10.27;7.18;;;;;;;;;;6266313;28;20594;-64
2022/11/16 13:46:55;;;;;;;9.18;6.70;;;;;;;;;;6264065;28;20053;-66
2022/11/16 13:49:58;;;;;;;;;;;;;;;;;;6266218;28;20063;-65
2022/11/16 13:53:03;;;;;;;8.98;6.43;;;;;;;;;;6265422;28;19932;-65
2022/11/16 13:56:05;;;;;;;9.95;7.35;;;;;;;;;;6265460;28;20076;-65
2022/11/16 13:59:15;;;;;;;9.27;7.10;;;;;;;;;;6263968;28;20213;-65
2022/11/16 14:02:30;;;;;;;8.45;6.18;;;;;;;;;;6265051;28;20163;-64
2022/11/16 14:05:38;;;;;;;9.32;6.43;;;;;;;;;;6264798;28;20116;-68
2022/11/16 14:08:52;;;;;;;8.23;6.40;;;;;;;;;;6266378;28;20053;-70
2022/11/16 14:11:53;;;;;;;12.47;7.00;;;;;;;;;;6264943;28;20060;-67
2022/11/16 14:15:04;;;;;;;9.90;6.38;;;;;;;;;;6261647;28;20521;-69
2022/11/16 14:18:31;;;;;;;9.73;6.70;;;;;;;;;;6264461;28;20064;-68
2022/11/16 14:21:41;;;;;;;8.77;6.30;;;;;;;;;;6255937;28;20060;-68
2022/11/16 14:24:48;;;;;;;7.63;5.90;;;;;;;;;;6261664;28;20060;-69
2022/11/16 14:27:53;;;;;;;8.07;6.13;;;;;;;;;;6262984;28;20053;-70
2022/11/16 14:31:04;;;;;;;11.55;6.88;;;;;;;;;;6265531;28;20091;-68
2022/11/16 14:34:16;;;;;;;8.10;5.93;;;;;;;;;;6266269;28;20058;-65
2022/11/16 14:37:30;;;;;;;8.27;6.20;;;;;;;;;;6262526;28;20057;-69
2022/11/16 14:40:41;;;;;;;7.72;6.10;;;;;;;;;;6262428;28;20049;-65
2022/11/16 14:43:45;;;;;;;7.30;5.95;;;;;;;;;;6261916;28;20325;-68
2022/11/16 14:46:47;;;;;;;;;;;;;;;;;;6264470;28;20037;-69
2022/11/16 14:49:49;;;;;;;7.40;5.38;;;;;;;;;;6263162;28;20013;-68
2022/11/16 14:52:53;;;;;;;8.43;6.10;;;;;;;;;;6264574;28;20257;-69
2022/11/16 14:56:08;;;;;;;9.07;6.30;;;;;;;;;;6262861;28;20110;-69
2022/11/16 14:59:16;;;;;;;8.07;6.78;;;;;;;;;;6265327;28;20287;-68
2022/11/16 15:02:20;;;;;;;8.93;6.45;;;;;;;;;;6262928;28;20072;-68
2022/11/16 15:05:23;;;;;;;;;;;;;;;;;;6260412;28;20045;-69
2022/11/16 15:08:30;;;;;;;9.93;6.20;;;;;;;;;;6262813;28;19924;-67
2022/11/16 15:14:58;;;;;;;7.97;5.83;;;;;;;;;;6263471;28;20066;-69
2022/11/16 15:18:07;;;;;;;8.35;5.68;;;;;;;;;;6260613;28;20211;-67
2022/11/16 15:21:21;;;;;;;7.60;5.78;;;;;;;;;;6270355;28;20198;-68
2022/11/16 15:24:24;;;;;;;7.83;5.60;;;;;;;;;;6252623;28;20041;-70
2022/11/16 15:27:34;;;;;;;8.47;5.60;;;;;;;;;;6271203;28;20695;-69
2022/11/16 15:30:38;;;;;;;6.13;4.78;;;;;;;;;;6261271;28;20052;-65
2022/11/16 15:33:41;;;;;;;;;;;;;;;;;;6273971;28;20257;-67
2022/11/16 15:36:43;;;;;;;8.00;5.57;;;;;;;;;;6273814;28;19932;-67
2022/11/16 15:39:45;;;;;;;7.10;5.28;;;;;;;;;;6260275;28;20057;-68
2022/11/16 15:42:50;;;;;;;7.90;5.45;;;;;;;;;;6264183;28;20080;-63
2022/11/16 15:45:52;;;;;;;7.85;5.15;;;;;;;;;;6261280;28;20046;-68
2022/11/16 15:48:54;;;;;;;6.60;5.15;;;;;;;;;;6269371;28;20053;-66
2022/11/16 15:51:57;;;;;;;7.60;5.10;;;;;;;;;;6268592;28;20049;-68
2022/11/16 15:55:04;;;;;;;7.00;5.37;;;;;;;;;;6269203;28;20284;-67
2022/11/16 15:58:14;;;;;;;6.75;4.57;;;;;;;;;;6269667;28;20068;-67
2022/11/16 16:01:16;;;;;;;4.53;3.80;;;;;;;;;;6265417;28;20060;-70
2022/11/16 16:04:18;;;;;;;5.32;4.38;;;;;;;;;;6268137;28;20328;-67
2022/11/16 16:07:35;;;;;;;6.78;4.35;;;;;;;;;;6271687;28;20056;-67
2022/11/16 16:10:37;;;;;;;6.43;4.60;;;;;;;;;;6269248;28;20137;-70
2022/11/16 16:13:41;;;;;;;6.88;5.20;;;;;;;;;;6265438;28;20061;-68
2022/11/16 16:16:43;;;;;;;6.50;4.97;;;;;;;;;;6265267;28;20091;-67
2022/11/16 16:19:45;;;;;;;8.38;5.20;;;;;;;;;;6253220;28;20139;-68
2022/11/16 16:22:47;;;;;;;6.18;4.82;;;;;;;;;;6259166;28;20333;-68
2022/11/16 16:25:48;;;;;;;7.10;4.90;;;;;;;;;;6264576;28;20059;-68
2022/11/16 16:28:51;;;;;;;7.57;5.47;;;;;;;;;;6264517;28;20099;-67
2022/11/16 16:31:53;;;;;;;8.20;5.85;;;;;;;;;;6264239;28;20268;-66
2022/11/16 16:34:56;;;;;;;6.97;5.60;;;;;;;;;;6270935;28;20100;-66
2022/11/16 16:37:59;;;;;;;7.28;5.72;;;;;;;;;;6266152;28;20059;-66
2022/11/16 16:41:02;;;;;;;8.95;6.18;;;;;;;;;;6267966;28;20049;-66
2022/11/16 16:44:12;;;;;;;8.95;6.03;;;;;;;;;;6264354;28;20395;-65
2022/11/16 16:47:13;;;;;;;8.38;5.88;;;;;;;;;;6267568;28;20134;-66
2022/11/16 16:50:16;;;;;;;7.53;5.78;;;;;;;;;;6264331;28;20198;-66
2022/11/16 16:53:17;;;;;;;7.93;6.00;;;;;;;;;;6265756;28;20095;-66
2022/11/16 16:56:20;;;;;;;7.43;5.97;;;;;;;;;;6266333;28;20053;-69
2022/11/16 16:59:24;;;;;;;9.60;6.35;;;;;;;;;;6270734;28;20053;-69
2022/11/16 17:02:26;;;;;;;9.02;6.47;;;;;;;;;;6266771;28;20045;-67
2022/11/16 17:05:31;;;;;;;10.43;6.68;;;;;;;;;;6268209;28;20134;-66
2022/11/16 17:08:34;;;;;;;10.48;7.72;;;;;;;;;;6266347;28;20103;-65
2022/11/16 17:11:35;;;;;;;10.85;7.03;;;;;;;;;;6261813;28;20268;-65
2022/11/16 17:14:39;;;;;;;10.52;7.97;;;;;;;;;;6263802;28;20052;-66
2022/11/16 17:17:41;;;;;;;10.52;8.15;;;;;;;;;;6257639;28;20041;-65
2022/11/16 17:20:43;;;;;;;14.57;9.25;;;;;;;;;;6262793;28;20061;-65
2022/11/16 17:23:44;;;;;;;11.23;8.98;;;;;;;;;;6259356;28;20099;-65
2022/11/16 17:26:47;;;;;;;12.55;9.48;;;;;;;;;;6266159;28;20063;-65
2022/11/16 17:29:50;;;;;;;12.68;10.10;;;;;;;;;;6266742;28;20044;-65
2022/11/16 17:32:52;;;;;;;12.52;9.65;;;;;;;;;;6267112;28;20041;-65
2022/11/16 17:35:55;;;;;;;12.90;10.25;;;;;;;;;;6265009;28;20064;-65
2022/11/16 17:38:58;;;;;;;13.90;9.95;;;;;;;;;;6268144;28;20057;-65
2022/11/16 17:41:59;;;;;;;13.50;10.13;;;;;;;;;;6264285;28;20064;-66
2022/11/16 17:45:03;;;;;;;12.40;9.32;;;;;;;;;;6263625;28;20088;-65
2022/11/16 17:48:05;;;;;;;13.67;10.23;;;;;;;;;;6266403;28;20099;-65
2022/11/16 17:51:07;;;;;;;16.45;11.18;;;;;;;;;;6265868;28;20053;-65
2022/11/16 17:54:09;;;;;;;14.13;10.20;;;;;;;;;;6266505;28;20055;-65
2022/11/16 17:57:10;;;;;;;13.18;10.25;;;;;;;;;;6266091;28;20049;-65
2022/11/16 18:00:15;;;;;;;14.07;10.57;;;;;;;;;;6262282;28;20107;-66
2022/11/16 18:03:17;;;;;;;13.40;10.68;;;;;;;;;;6268057;28;20118;-66
2022/11/16 18:06:20;;;;;;;13.57;10.70;;;;;;;;;;6266454;28;20069;-64
2022/11/16 18:09:22;;;;;;;13.85;11.13;;;;;;;;;;6265032;28;20263;-64
2022/11/16 18:12:24;;;;;;;15.18;10.77;;;;;;;;;;6256139;28;20094;-64
2022/11/16 18:15:27;;;;;;;13.80;10.82;;;;;;;;;;6266166;28;20053;-64
2022/11/16 18:18:28;;;;;;;14.00;10.43;;;;;;;;;;6265860;28;20126;-64
2022/11/16 18:21:32;;;;;;;12.63;9.95;;;;;;;;;;6257138;28;20045;-64
2022/11/16 18:24:34;;;;;;;14.65;11.30;;;;;;;;;;6264775;28;20218;-64
2022/11/16 18:27:35;;;;;;;15.73;10.73;;;;;;;;;;6263597;28;20057;-65
2022/11/16 18:30:38;;;;;;;16.42;10.95;;;;;;;;;;6266072;28;20384;-64
2022/11/16 18:33:40;;;;;;;13.45;10.43;;;;;;;;;;6266345;28;20351;-64
2022/11/16 18:36:45;;;;;;;13.10;10.05;;;;;;;;;;6258355;28;20056;-64
2022/11/16 18:39:47;;;;;;;12.05;9.85;;;;;;;;;;6265146;28;20064;-63
2022/11/16 18:42:48;;;;;;;12.48;9.27;;;;;;;;;;6269293;28;20194;-63
2022/11/16 18:45:51;;;;;;;10.68;8.57;;;;;;;;;;6268251;28;20344;-64
2022/11/16 18:48:53;;;;;;;14.15;8.82;;;;;;;;;;6273454;28;20049;-65
2022/11/16 18:51:55;;;;;;;12.57;8.75;;;;;;;;;;6266662;28;20045;-63
2022/11/16 18:54:57;;;;;;;11.50;8.55;;;;;;;;;;6273825;28;20232;-64
2022/11/16 18:57:58;;;;;;;11.40;9.02;;;;;;;;;;6267680;28;20064;-64
2022/11/16 19:01:02;;;;;;;12.98;8.98;;;;;;;;;;6270374;28;20057;-65
2022/11/16 19:04:06;;;;;;;11.73;9.52;;;;;;;;;;6269912;28;20057;-64
2022/11/16 19:07:08;;;;;;;12.73;9.82;;;;;;;;;;6278663;28;20253;-63
2022/11/16 19:10:10;;;;;;;12.65;9.52;;;;;;;;;;6275164;28;20052;-64